sensor_id;sensor_type;location;lat;lon;timestamp;P1;durP1;ratioP1;P2;durP2;ratioP2
1759;SDS011;877;46.266;20.062;2023-04-25T00:01:41;47.00;;;36.13;;
1759;SDS011;877;46.266;20.062;2023-04-25T00:04:07;48.57;;;37.40;;
1759;SDS011;877;46.266;20.062;2023-04-25T00:06:34;60.90;;;37.90;;
1759;SDS011;877;46.266;20.062;2023-04-25T00:09:05;48.00;;;37.27;;
1759;SDS011;877;46.266;20.062;2023-04-25T00:11:42;57.67;;;41.17;;
1759;SDS011;877;46.266;20.062;2023-04-25T00:14:09;56.87;;;37.37;;
1759;SDS011;877;46.266;20.062;2023-04-25T00:16:35;59.53;;;41.00;;
1759;SDS011;877;46.266;20.062;2023-04-25T00:19:01;58.40;;;40.20;;
1759;SDS011;877;46.266;20.062;2023-04-25T00:21:28;56.50;;;37.33;;
1759;SDS011;877;46.266;20.062;2023-04-25T00:23:58;53.33;;;38.47;;
1759;SDS011;877;46.266;20.062;2023-04-25T00:26:25;55.97;;;40.83;;
1759;SDS011;877;46.266;20.062;2023-04-25T00:28:51;52.87;;;40.00;;
1759;SDS011;877;46.266;20.062;2023-04-25T00:31:19;55.20;;;39.23;;
1759;SDS011;877;46.266;20.062;2023-04-25T00:33:45;50.20;;;36.23;;
1759;SDS011;877;46.266;20.062;2023-04-25T00:36:14;46.13;;;33.60;;
1759;SDS011;877;46.266;20.062;2023-04-25T00:38:41;44.10;;;34.50;;
1759;SDS011;877;46.266;20.062;2023-04-25T00:41:08;45.80;;;31.37;;
1759;SDS011;877;46.266;20.062;2023-04-25T00:43:36;40.03;;;29.60;;
1759;SDS011;877;46.266;20.062;2023-04-25T00:46:08;34.17;;;25.73;;
1759;SDS011;877;46.266;20.062;2023-04-25T00:51:09;28.60;;;21.53;;
1759;SDS011;877;46.266;20.062;2023-04-25T00:53:40;26.37;;;21.47;;
1759;SDS011;877;46.266;20.062;2023-04-25T00:56:07;25.17;;;18.90;;
1759;SDS011;877;46.266;20.062;2023-04-25T00:58:36;24.97;;;20.10;;
1759;SDS011;877;46.266;20.062;2023-04-25T01:04:19;21.13;;;16.27;;
1759;SDS011;877;46.266;20.062;2023-04-25T01:06:46;24.60;;;16.73;;
1759;SDS011;877;46.266;20.062;2023-04-25T01:09:14;24.20;;;16.33;;
1759;SDS011;877;46.266;20.062;2023-04-25T01:11:40;21.70;;;17.07;;
1759;SDS011;877;46.266;20.062;2023-04-25T01:14:08;23.23;;;16.80;;
1759;SDS011;877;46.266;20.062;2023-04-25T01:16:35;25.00;;;16.10;;
1759;SDS011;877;46.266;20.062;2023-04-25T01:19:03;21.97;;;16.80;;
1759;SDS011;877;46.266;20.062;2023-04-25T01:21:32;22.30;;;15.87;;
1759;SDS011;877;46.266;20.062;2023-04-25T01:24:00;22.60;;;15.97;;
1759;SDS011;877;46.266;20.062;2023-04-25T01:26:28;19.97;;;15.53;;
1759;SDS011;877;46.266;20.062;2023-04-25T01:28:54;23.70;;;17.13;;
1759;SDS011;877;46.266;20.062;2023-04-25T01:31:22;21.83;;;16.73;;
1759;SDS011;877;46.266;20.062;2023-04-25T01:33:56;25.33;;;18.13;;
1759;SDS011;877;46.266;20.062;2023-04-25T01:36:22;24.37;;;17.97;;
1759;SDS011;877;46.266;20.062;2023-04-25T01:38:49;29.97;;;18.23;;
1759;SDS011;877;46.266;20.062;2023-04-25T01:41:23;25.40;;;18.83;;
1759;SDS011;877;46.266;20.062;2023-04-25T01:43:53;22.77;;;17.20;;
1759;SDS011;877;46.266;20.062;2023-04-25T01:46:21;24.17;;;17.83;;
1759;SDS011;877;46.266;20.062;2023-04-25T01:48:50;24.27;;;17.43;;
1759;SDS011;877;46.266;20.062;2023-04-25T01:53:50;23.47;;;18.03;;
1759;SDS011;877;46.266;20.062;2023-04-25T01:56:17;24.00;;;17.57;;
1759;SDS011;877;46.266;20.062;2023-04-25T01:58:45;23.73;;;17.87;;
1759;SDS011;877;46.266;20.062;2023-04-25T02:01:13;26.80;;;19.47;;
1759;SDS011;877;46.266;20.062;2023-04-25T02:03:40;21.80;;;17.70;;
1759;SDS011;877;46.266;20.062;2023-04-25T02:06:07;24.53;;;18.10;;
1759;SDS011;877;46.266;20.062;2023-04-25T02:08:42;25.10;;;17.57;;
1759;SDS011;877;46.266;20.062;2023-04-25T02:11:09;24.77;;;19.33;;
1759;SDS011;877;46.266;20.062;2023-04-25T02:13:38;25.67;;;18.37;;
1759;SDS011;877;46.266;20.062;2023-04-25T02:16:06;26.23;;;19.83;;
1759;SDS011;877;46.266;20.062;2023-04-25T02:18:39;22.93;;;17.50;;
1759;SDS011;877;46.266;20.062;2023-04-25T02:21:06;21.30;;;16.03;;
1759;SDS011;877;46.266;20.062;2023-04-25T02:23:32;21.83;;;16.30;;
1759;SDS011;877;46.266;20.062;2023-04-25T02:25:58;20.70;;;16.23;;
1759;SDS011;877;46.266;20.062;2023-04-25T02:28:25;20.80;;;16.10;;
1759;SDS011;877;46.266;20.062;2023-04-25T02:30:51;22.63;;;16.90;;
1759;SDS011;877;46.266;20.062;2023-04-25T02:33:26;21.77;;;16.53;;
1759;SDS011;877;46.266;20.062;2023-04-25T02:38:24;19.00;;;15.20;;
1759;SDS011;877;46.266;20.062;2023-04-25T02:40:52;24.53;;;16.50;;
1759;SDS011;877;46.266;20.062;2023-04-25T02:43:20;19.27;;;15.23;;
1759;SDS011;877;46.266;20.062;2023-04-25T02:45:47;17.80;;;13.10;;
1759;SDS011;877;46.266;20.062;2023-04-25T02:48:18;16.70;;;12.80;;
1759;SDS011;877;46.266;20.062;2023-04-25T02:50:45;14.83;;;13.00;;
1759;SDS011;877;46.266;20.062;2023-04-25T02:53:12;14.37;;;11.13;;
1759;SDS011;877;46.266;20.062;2023-04-25T02:55:38;16.80;;;12.30;;
1759;SDS011;877;46.266;20.062;2023-04-25T02:58:04;13.80;;;12.30;;
1759;SDS011;877;46.266;20.062;2023-04-25T03:00:31;14.83;;;12.10;;
1759;SDS011;877;46.266;20.062;2023-04-25T03:02:58;16.83;;;12.10;;
1759;SDS011;877;46.266;20.062;2023-04-25T03:05:24;20.17;;;12.33;;
1759;SDS011;877;46.266;20.062;2023-04-25T03:07:51;14.40;;;11.40;;
1759;SDS011;877;46.266;20.062;2023-04-25T03:10:17;14.30;;;10.50;;
1759;SDS011;877;46.266;20.062;2023-04-25T03:12:43;16.80;;;12.33;;
1759;SDS011;877;46.266;20.062;2023-04-25T03:15:17;14.10;;;10.13;;
1759;SDS011;877;46.266;20.062;2023-04-25T03:17:44;19.30;;;10.30;;
1759;SDS011;877;46.266;20.062;2023-04-25T03:20:10;16.30;;;10.70;;
1759;SDS011;877;46.266;20.062;2023-04-25T03:22:36;16.00;;;11.43;;
1759;SDS011;877;46.266;20.062;2023-04-25T03:25:03;14.53;;;11.33;;
1759;SDS011;877;46.266;20.062;2023-04-25T03:27:36;15.30;;;11.63;;
1759;SDS011;877;46.266;20.062;2023-04-25T03:30:03;15.70;;;11.00;;
1759;SDS011;877;46.266;20.062;2023-04-25T03:35:15;13.10;;;9.90;;
1759;SDS011;877;46.266;20.062;2023-04-25T03:40:12;13.40;;;10.57;;
1759;SDS011;877;46.266;20.062;2023-04-25T03:42:38;13.70;;;10.90;;
1759;SDS011;877;46.266;20.062;2023-04-25T03:45:05;17.13;;;11.20;;
1759;SDS011;877;46.266;20.062;2023-04-25T03:47:32;16.70;;;12.57;;
1759;SDS011;877;46.266;20.062;2023-04-25T03:50:00;14.63;;;10.77;;
1759;SDS011;877;46.266;20.062;2023-04-25T03:52:29;16.00;;;11.87;;
1759;SDS011;877;46.266;20.062;2023-04-25T03:54:58;16.77;;;13.90;;
1759;SDS011;877;46.266;20.062;2023-04-25T03:57:32;17.93;;;13.10;;
1759;SDS011;877;46.266;20.062;2023-04-25T03:59:59;15.80;;;12.57;;
1759;SDS011;877;46.266;20.062;2023-04-25T04:02:27;16.20;;;12.93;;
1759;SDS011;877;46.266;20.062;2023-04-25T04:04:54;17.47;;;14.30;;
1759;SDS011;877;46.266;20.062;2023-04-25T04:07:21;15.33;;;12.33;;
1759;SDS011;877;46.266;20.062;2023-04-25T04:09:48;16.37;;;12.33;;
1759;SDS011;877;46.266;20.062;2023-04-25T04:12:18;17.70;;;13.47;;
1759;SDS011;877;46.266;20.062;2023-04-25T04:14:44;16.90;;;12.37;;
1759;SDS011;877;46.266;20.062;2023-04-25T04:17:10;18.73;;;13.27;;
1759;SDS011;877;46.266;20.062;2023-04-25T04:19:38;18.03;;;13.13;;
1759;SDS011;877;46.266;20.062;2023-04-25T04:22:11;18.10;;;13.27;;
1759;SDS011;877;46.266;20.062;2023-04-25T04:24:38;18.90;;;13.87;;
1759;SDS011;877;46.266;20.062;2023-04-25T04:27:07;18.63;;;13.57;;
1759;SDS011;877;46.266;20.062;2023-04-25T04:32:07;14.43;;;12.37;;
1759;SDS011;877;46.266;20.062;2023-04-25T04:34:35;15.03;;;11.93;;
1759;SDS011;877;46.266;20.062;2023-04-25T04:37:02;14.63;;;12.57;;
1759;SDS011;877;46.266;20.062;2023-04-25T04:39:28;14.57;;;12.43;;
1759;SDS011;877;46.266;20.062;2023-04-25T04:42:00;15.63;;;13.20;;
1759;SDS011;877;46.266;20.062;2023-04-25T04:44:27;16.10;;;12.32;;
1759;SDS011;877;46.266;20.062;2023-04-25T04:47:10;16.20;;;10.53;;
1759;SDS011;877;46.266;20.062;2023-04-25T04:49:40;16.10;;;10.63;;
1759;SDS011;877;46.266;20.062;2023-04-25T04:52:11;13.67;;;11.70;;
1759;SDS011;877;46.266;20.062;2023-04-25T04:54:39;12.00;;;10.80;;
1759;SDS011;877;46.266;20.062;2023-04-25T04:57:24;11.63;;;10.00;;
1759;SDS011;877;46.266;20.062;2023-04-25T04:59:58;13.10;;;11.70;;
1759;SDS011;877;46.266;20.062;2023-04-25T05:02:24;11.07;;;9.53;;
1759;SDS011;877;46.266;20.062;2023-04-25T05:04:56;13.80;;;10.83;;
1759;SDS011;877;46.266;20.062;2023-04-25T05:07:23;12.20;;;9.73;;
1759;SDS011;877;46.266;20.062;2023-04-25T05:09:50;12.63;;;9.77;;
1759;SDS011;877;46.266;20.062;2023-04-25T05:12:17;12.53;;;9.23;;
1759;SDS011;877;46.266;20.062;2023-04-25T05:14:44;12.73;;;9.90;;
1759;SDS011;877;46.266;20.062;2023-04-25T05:17:10;15.43;;;10.40;;
1759;SDS011;877;46.266;20.062;2023-04-25T05:19:36;10.90;;;9.80;;
1759;SDS011;877;46.266;20.062;2023-04-25T05:22:03;12.40;;;10.47;;
1759;SDS011;877;46.266;20.062;2023-04-25T05:24:30;13.40;;;10.73;;
1759;SDS011;877;46.266;20.062;2023-04-25T05:27:02;14.07;;;11.37;;
1759;SDS011;877;46.266;20.062;2023-04-25T05:29:28;16.10;;;12.93;;
1759;SDS011;877;46.266;20.062;2023-04-25T05:31:54;15.77;;;12.57;;
1759;SDS011;877;46.266;20.062;2023-04-25T05:34:20;16.20;;;11.70;;
1759;SDS011;877;46.266;20.062;2023-04-25T05:39:35;14.23;;;12.20;;
1759;SDS011;877;46.266;20.062;2023-04-25T05:42:03;16.13;;;11.10;;
1759;SDS011;877;46.266;20.062;2023-04-25T05:44:31;13.63;;;12.20;;
1759;SDS011;877;46.266;20.062;2023-04-25T05:46:59;12.00;;;10.70;;
1759;SDS011;877;46.266;20.062;2023-04-25T05:49:38;15.87;;;12.90;;
1759;SDS011;877;46.266;20.062;2023-04-25T05:54:36;14.97;;;12.00;;
1759;SDS011;877;46.266;20.062;2023-04-25T05:57:04;14.27;;;11.40;;
1759;SDS011;877;46.266;20.062;2023-04-25T05:59:32;13.30;;;10.00;;
1759;SDS011;877;46.266;20.062;2023-04-25T06:01:58;15.37;;;11.00;;
1759;SDS011;877;46.266;20.062;2023-04-25T06:04:34;12.97;;;10.67;;
1759;SDS011;877;46.266;20.062;2023-04-25T06:07:00;13.43;;;9.90;;
1759;SDS011;877;46.266;20.062;2023-04-25T06:09:27;11.10;;;9.60;;
1759;SDS011;877;46.266;20.062;2023-04-25T06:11:58;12.80;;;9.03;;
1759;SDS011;877;46.266;20.062;2023-04-25T06:17:02;10.73;;;8.23;;
1759;SDS011;877;46.266;20.062;2023-04-25T06:19:35;10.90;;;8.00;;
1759;SDS011;877;46.266;20.062;2023-04-25T06:22:02;9.43;;;8.10;;
1759;SDS011;877;46.266;20.062;2023-04-25T06:24:30;9.73;;;7.70;;
1759;SDS011;877;46.266;20.062;2023-04-25T06:26:56;10.30;;;7.67;;
1759;SDS011;877;46.266;20.062;2023-04-25T06:29:23;7.90;;;6.90;;
1759;SDS011;877;46.266;20.062;2023-04-25T06:31:50;10.30;;;8.97;;
1759;SDS011;877;46.266;20.062;2023-04-25T06:34:21;10.10;;;8.63;;
1759;SDS011;877;46.266;20.062;2023-04-25T06:36:47;12.37;;;7.70;;
1759;SDS011;877;46.266;20.062;2023-04-25T06:39:14;11.00;;;8.40;;
1759;SDS011;877;46.266;20.062;2023-04-25T06:44:12;8.33;;;7.30;;
1759;SDS011;877;46.266;20.062;2023-04-25T06:46:38;11.63;;;8.27;;
1759;SDS011;877;46.266;20.062;2023-04-25T06:49:04;10.13;;;8.70;;
1759;SDS011;877;46.266;20.062;2023-04-25T06:51:32;8.70;;;7.80;;
1759;SDS011;877;46.266;20.062;2023-04-25T06:53:59;9.00;;;7.03;;
1759;SDS011;877;46.266;20.062;2023-04-25T06:59:05;6.80;;;6.07;;
1759;SDS011;877;46.266;20.062;2023-04-25T07:01:36;6.33;;;5.53;;
1759;SDS011;877;46.266;20.062;2023-04-25T07:06:39;6.50;;;5.80;;
1759;SDS011;877;46.266;20.062;2023-04-25T07:09:09;6.53;;;5.33;;
1759;SDS011;877;46.266;20.062;2023-04-25T07:11:35;6.73;;;5.40;;
1759;SDS011;877;46.266;20.062;2023-04-25T07:14:01;8.00;;;5.73;;
1759;SDS011;877;46.266;20.062;2023-04-25T07:16:33;6.30;;;5.10;;
1759;SDS011;877;46.266;20.062;2023-04-25T07:19:00;9.43;;;5.20;;
1759;SDS011;877;46.266;20.062;2023-04-25T07:21:32;7.10;;;4.40;;
1759;SDS011;877;46.266;20.062;2023-04-25T07:23:58;5.30;;;4.77;;
1759;SDS011;877;46.266;20.062;2023-04-25T07:26:26;6.80;;;5.63;;
1759;SDS011;877;46.266;20.062;2023-04-25T07:28:52;7.73;;;5.17;;
1759;SDS011;877;46.266;20.062;2023-04-25T07:31:19;5.80;;;5.20;;
1759;SDS011;877;46.266;20.062;2023-04-25T07:33:47;7.00;;;5.33;;
1759;SDS011;877;46.266;20.062;2023-04-25T07:36:15;9.03;;;6.10;;
1759;SDS011;877;46.266;20.062;2023-04-25T07:38:41;6.73;;;6.00;;
1759;SDS011;877;46.266;20.062;2023-04-25T07:41:13;7.33;;;5.77;;
1759;SDS011;877;46.266;20.062;2023-04-25T07:43:39;7.63;;;6.23;;
1759;SDS011;877;46.266;20.062;2023-04-25T07:46:05;6.30;;;5.70;;
1759;SDS011;877;46.266;20.062;2023-04-25T07:48:33;8.17;;;5.77;;
1759;SDS011;877;46.266;20.062;2023-04-25T07:51:01;6.53;;;5.60;;
1759;SDS011;877;46.266;20.062;2023-04-25T07:53:29;6.43;;;5.47;;
1759;SDS011;877;46.266;20.062;2023-04-25T07:55:56;6.87;;;5.40;;
1759;SDS011;877;46.266;20.062;2023-04-25T07:58:22;7.10;;;5.17;;
1759;SDS011;877;46.266;20.062;2023-04-25T08:00:52;6.37;;;5.47;;
1759;SDS011;877;46.266;20.062;2023-04-25T08:03:20;6.00;;;4.70;;
1759;SDS011;877;46.266;20.062;2023-04-25T08:05:47;6.80;;;4.77;;
1759;SDS011;877;46.266;20.062;2023-04-25T08:08:13;5.90;;;4.60;;
1759;SDS011;877;46.266;20.062;2023-04-25T08:13:14;6.50;;;5.07;;
1759;SDS011;877;46.266;20.062;2023-04-25T08:15:40;6.00;;;4.93;;
1759;SDS011;877;46.266;20.062;2023-04-25T08:18:06;5.67;;;4.30;;
1759;SDS011;877;46.266;20.062;2023-04-25T08:20:33;5.00;;;4.50;;
1759;SDS011;877;46.266;20.062;2023-04-25T08:22:59;6.77;;;5.50;;
1759;SDS011;877;46.266;20.062;2023-04-25T08:25:32;9.80;;;5.67;;
1759;SDS011;877;46.266;20.062;2023-04-25T08:27:58;6.63;;;5.30;;
1759;SDS011;877;46.266;20.062;2023-04-25T08:30:24;7.13;;;5.90;;
1759;SDS011;877;46.266;20.062;2023-04-25T08:32:52;6.30;;;5.40;;
1759;SDS011;877;46.266;20.062;2023-04-25T08:35:19;8.10;;;5.37;;
1759;SDS011;877;46.266;20.062;2023-04-25T08:37:46;9.80;;;5.70;;
1759;SDS011;877;46.266;20.062;2023-04-25T08:40:16;7.10;;;5.50;;
1759;SDS011;877;46.266;20.062;2023-04-25T08:45:12;9.43;;;5.70;;
1759;SDS011;877;46.266;20.062;2023-04-25T08:47:42;6.57;;;5.93;;
1759;SDS011;877;46.266;20.062;2023-04-25T08:50:11;6.03;;;5.43;;
1759;SDS011;877;46.266;20.062;2023-04-25T08:52:40;4.90;;;4.40;;
1759;SDS011;877;46.266;20.062;2023-04-25T08:55:10;5.93;;;4.70;;
1759;SDS011;877;46.266;20.062;2023-04-25T08:57:42;5.50;;;4.60;;
1759;SDS011;877;46.266;20.062;2023-04-25T09:00:10;5.43;;;4.20;;
1759;SDS011;877;46.266;20.062;2023-04-25T09:02:40;5.93;;;4.40;;
1759;SDS011;877;46.266;20.062;2023-04-25T09:05:12;5.47;;;4.30;;
1759;SDS011;877;46.266;20.062;2023-04-25T09:07:38;4.47;;;3.93;;
1759;SDS011;877;46.266;20.062;2023-04-25T09:10:05;7.10;;;4.40;;
1759;SDS011;877;46.266;20.062;2023-04-25T09:12:34;5.03;;;4.20;;
1759;SDS011;877;46.266;20.062;2023-04-25T09:15:06;5.73;;;4.77;;
1759;SDS011;877;46.266;20.062;2023-04-25T09:17:37;4.60;;;3.90;;
1759;SDS011;877;46.266;20.062;2023-04-25T09:20:06;4.50;;;4.07;;
1759;SDS011;877;46.266;20.062;2023-04-25T09:22:33;6.80;;;5.90;;
1759;SDS011;877;46.266;20.062;2023-04-25T09:25:02;5.60;;;4.30;;
1759;SDS011;877;46.266;20.062;2023-04-25T09:27:30;4.90;;;3.70;;
1759;SDS011;877;46.266;20.062;2023-04-25T09:30:00;4.60;;;4.10;;
1759;SDS011;877;46.266;20.062;2023-04-25T09:32:27;4.60;;;4.10;;
1759;SDS011;877;46.266;20.062;2023-04-25T09:35:02;6.17;;;4.20;;
1759;SDS011;877;46.266;20.062;2023-04-25T09:37:30;5.40;;;3.70;;
1759;SDS011;877;46.266;20.062;2023-04-25T09:39:58;5.67;;;4.23;;
1759;SDS011;877;46.266;20.062;2023-04-25T09:42:27;4.60;;;3.93;;
1759;SDS011;877;46.266;20.062;2023-04-25T09:44:54;8.23;;;3.20;;
1759;SDS011;877;46.266;20.062;2023-04-25T09:47:22;4.67;;;3.83;;
1759;SDS011;877;46.266;20.062;2023-04-25T09:49:49;4.47;;;3.00;;
1759;SDS011;877;46.266;20.062;2023-04-25T09:52:17;4.93;;;3.43;;
1759;SDS011;877;46.266;20.062;2023-04-25T09:54:45;3.63;;;3.00;;
1759;SDS011;877;46.266;20.062;2023-04-25T09:57:22;4.30;;;3.20;;
1759;SDS011;877;46.266;20.062;2023-04-25T09:59:53;5.80;;;3.50;;
1759;SDS011;877;46.266;20.062;2023-04-25T10:02:21;7.00;;;4.07;;
1759;SDS011;877;46.266;20.062;2023-04-25T10:04:48;8.33;;;5.00;;
1759;SDS011;877;46.266;20.062;2023-04-25T10:07:16;5.23;;;4.73;;
1759;SDS011;877;46.266;20.062;2023-04-25T10:09:43;5.47;;;4.17;;
1759;SDS011;877;46.266;20.062;2023-04-25T10:12:13;6.70;;;4.40;;
1759;SDS011;877;46.266;20.062;2023-04-25T10:14:40;7.07;;;4.60;;
1759;SDS011;877;46.266;20.062;2023-04-25T10:17:10;5.50;;;4.40;;
1759;SDS011;877;46.266;20.062;2023-04-25T10:19:40;4.47;;;4.00;;
1759;SDS011;877;46.266;20.062;2023-04-25T10:22:09;5.30;;;4.10;;
1759;SDS011;877;46.266;20.062;2023-04-25T10:24:39;4.70;;;3.80;;
1759;SDS011;877;46.266;20.062;2023-04-25T10:27:05;5.70;;;4.00;;
1759;SDS011;877;46.266;20.062;2023-04-25T10:29:32;5.30;;;3.70;;
1759;SDS011;877;46.266;20.062;2023-04-25T10:32:01;4.30;;;3.60;;
1759;SDS011;877;46.266;20.062;2023-04-25T10:37:11;4.10;;;3.63;;
1759;SDS011;877;46.266;20.062;2023-04-25T10:39:41;4.80;;;3.70;;
1759;SDS011;877;46.266;20.062;2023-04-25T10:42:08;4.70;;;3.90;;
1759;SDS011;877;46.266;20.062;2023-04-25T10:44:36;6.23;;;3.60;;
1759;SDS011;877;46.266;20.062;2023-04-25T10:47:05;4.20;;;3.60;;
1759;SDS011;877;46.266;20.062;2023-04-25T10:52:25;6.90;;;3.37;;
1759;SDS011;877;46.266;20.062;2023-04-25T10:54:58;4.27;;;3.27;;
1759;SDS011;877;46.266;20.062;2023-04-25T10:57:41;5.03;;;3.43;;
1759;SDS011;877;46.266;20.062;2023-04-25T11:00:21;4.03;;;3.40;;
1759;SDS011;877;46.266;20.062;2023-04-25T11:02:52;3.40;;;2.70;;
1759;SDS011;877;46.266;20.062;2023-04-25T11:08:10;4.67;;;2.80;;
1759;SDS011;877;46.266;20.062;2023-04-25T11:10:47;5.30;;;3.10;;
1759;SDS011;877;46.266;20.062;2023-04-25T11:13:13;6.00;;;3.07;;
1759;SDS011;877;46.266;20.062;2023-04-25T11:15:40;4.00;;;2.80;;
1759;SDS011;877;46.266;20.062;2023-04-25T11:18:06;5.50;;;3.23;;
1759;SDS011;877;46.266;20.062;2023-04-25T11:20:32;4.47;;;3.20;;
1759;SDS011;877;46.266;20.062;2023-04-25T11:25:37;5.60;;;2.33;;
1759;SDS011;877;46.266;20.062;2023-04-25T11:28:09;6.63;;;2.10;;
1759;SDS011;877;46.266;20.062;2023-04-25T11:30:35;3.50;;;2.33;;
1759;SDS011;877;46.266;20.062;2023-04-25T11:33:03;3.77;;;3.10;;
1759;SDS011;877;46.266;20.062;2023-04-25T11:35:29;4.63;;;3.90;;
1759;SDS011;877;46.266;20.062;2023-04-25T11:40:32;5.97;;;3.63;;
1759;SDS011;877;46.266;20.062;2023-04-25T11:42:59;4.23;;;3.17;;
1759;SDS011;877;46.266;20.062;2023-04-25T11:45:26;4.93;;;3.63;;
1759;SDS011;877;46.266;20.062;2023-04-25T11:47:53;7.53;;;4.53;;
1759;SDS011;877;46.266;20.062;2023-04-25T11:50:23;4.87;;;3.90;;
1759;SDS011;877;46.266;20.062;2023-04-25T11:52:49;4.70;;;3.50;;
1759;SDS011;877;46.266;20.062;2023-04-25T11:57:58;5.40;;;4.37;;
1759;SDS011;877;46.266;20.062;2023-04-25T12:00:26;6.60;;;4.17;;
1759;SDS011;877;46.266;20.062;2023-04-25T12:02:55;5.10;;;4.17;;
1759;SDS011;877;46.266;20.062;2023-04-25T12:05:30;5.53;;;4.07;;
1759;SDS011;877;46.266;20.062;2023-04-25T12:13:35;13.03;;;7.73;;
1759;SDS011;877;46.266;20.062;2023-04-25T12:16:05;12.70;;;9.23;;
1759;SDS011;877;46.266;20.062;2023-04-25T12:18:32;7.63;;;6.17;;
1759;SDS011;877;46.266;20.062;2023-04-25T12:21:01;4.50;;;3.60;;
1759;SDS011;877;46.266;20.062;2023-04-25T12:23:38;4.33;;;3.67;;
1759;SDS011;877;46.266;20.062;2023-04-25T12:26:07;5.73;;;2.93;;
1759;SDS011;877;46.266;20.062;2023-04-25T12:28:39;8.07;;;4.67;;
1759;SDS011;877;46.266;20.062;2023-04-25T12:33:47;3.80;;;3.10;;
1759;SDS011;877;46.266;20.062;2023-04-25T12:36:14;4.50;;;3.20;;
1759;SDS011;877;46.266;20.062;2023-04-25T12:38:43;5.10;;;3.23;;
1759;SDS011;877;46.266;20.062;2023-04-25T12:41:09;4.30;;;2.90;;
1759;SDS011;877;46.266;20.062;2023-04-25T12:43:42;4.33;;;3.30;;
1759;SDS011;877;46.266;20.062;2023-04-25T12:46:12;3.13;;;2.80;;
1759;SDS011;877;46.266;20.062;2023-04-25T12:48:39;5.03;;;3.83;;
1759;SDS011;877;46.266;20.062;2023-04-25T12:51:05;4.17;;;3.10;;
1759;SDS011;877;46.266;20.062;2023-04-25T12:53:33;3.03;;;2.20;;
1759;SDS011;877;46.266;20.062;2023-04-25T12:56:02;3.03;;;2.20;;
1759;SDS011;877;46.266;20.062;2023-04-25T12:58:31;5.27;;;2.23;;
1759;SDS011;877;46.266;20.062;2023-04-25T13:00:58;3.00;;;2.20;;
1759;SDS011;877;46.266;20.062;2023-04-25T13:03:26;3.23;;;2.70;;
1759;SDS011;877;46.266;20.062;2023-04-25T13:05:55;4.20;;;2.90;;
1759;SDS011;877;46.266;20.062;2023-04-25T13:08:22;3.67;;;2.60;;
1759;SDS011;877;46.266;20.062;2023-04-25T13:10:49;4.03;;;2.77;;
1759;SDS011;877;46.266;20.062;2023-04-25T13:13:15;3.30;;;2.50;;
1759;SDS011;877;46.266;20.062;2023-04-25T13:15:42;6.30;;;2.80;;
1759;SDS011;877;46.266;20.062;2023-04-25T13:18:10;5.60;;;2.73;;
1759;SDS011;877;46.266;20.062;2023-04-25T13:20:37;3.97;;;2.40;;
1759;SDS011;877;46.266;20.062;2023-04-25T13:23:05;4.37;;;2.03;;
1759;SDS011;877;46.266;20.062;2023-04-25T13:25:31;3.80;;;2.70;;
1759;SDS011;877;46.266;20.062;2023-04-25T13:27:59;3.50;;;2.90;;
1759;SDS011;877;46.266;20.062;2023-04-25T13:30:25;3.93;;;3.30;;
1759;SDS011;877;46.266;20.062;2023-04-25T13:35:28;3.90;;;3.07;;
1759;SDS011;877;46.266;20.062;2023-04-25T13:37:54;4.23;;;2.80;;
1759;SDS011;877;46.266;20.062;2023-04-25T13:40:22;4.00;;;2.47;;
1759;SDS011;877;46.266;20.062;2023-04-25T13:42:55;4.83;;;3.03;;
1759;SDS011;877;46.266;20.062;2023-04-25T13:45:21;3.87;;;2.13;;
1759;SDS011;877;46.266;20.062;2023-04-25T13:47:48;7.40;;;2.90;;
1759;SDS011;877;46.266;20.062;2023-04-25T13:50:20;3.07;;;2.20;;
1759;SDS011;877;46.266;20.062;2023-04-25T13:52:47;3.97;;;2.57;;
1759;SDS011;877;46.266;20.062;2023-04-25T13:55:14;3.40;;;2.70;;
1759;SDS011;877;46.266;20.062;2023-04-25T13:57:40;5.97;;;3.10;;
1759;SDS011;877;46.266;20.062;2023-04-25T14:02:37;5.77;;;3.40;;
1759;SDS011;877;46.266;20.062;2023-04-25T14:05:07;5.60;;;3.43;;
1759;SDS011;877;46.266;20.062;2023-04-25T14:07:34;3.60;;;2.33;;
1759;SDS011;877;46.266;20.062;2023-04-25T14:12:32;2.93;;;1.90;;
1759;SDS011;877;46.266;20.062;2023-04-25T14:14:58;3.00;;;1.80;;
1759;SDS011;877;46.266;20.062;2023-04-25T14:17:25;3.53;;;1.80;;
1759;SDS011;877;46.266;20.062;2023-04-25T14:19:52;2.60;;;1.80;;
1759;SDS011;877;46.266;20.062;2023-04-25T14:22:25;2.47;;;1.60;;
1759;SDS011;877;46.266;20.062;2023-04-25T14:24:53;4.10;;;1.80;;
1759;SDS011;877;46.266;20.062;2023-04-25T14:27:19;2.80;;;1.70;;
1759;SDS011;877;46.266;20.062;2023-04-25T14:29:46;3.20;;;1.60;;
1759;SDS011;877;46.266;20.062;2023-04-25T14:32:13;3.10;;;1.57;;
1759;SDS011;877;46.266;20.062;2023-04-25T14:34:40;3.17;;;1.90;;
1759;SDS011;877;46.266;20.062;2023-04-25T14:37:08;3.50;;;2.03;;
1759;SDS011;877;46.266;20.062;2023-04-25T14:39:34;4.00;;;1.63;;
1759;SDS011;877;46.266;20.062;2023-04-25T14:42:06;2.87;;;1.47;;
1759;SDS011;877;46.266;20.062;2023-04-25T14:44:39;3.30;;;1.60;;
1759;SDS011;877;46.266;20.062;2023-04-25T14:47:07;2.27;;;1.20;;
1759;SDS011;877;46.266;20.062;2023-04-25T14:52:26;3.10;;;1.60;;
1759;SDS011;877;46.266;20.062;2023-04-25T14:54:55;2.50;;;1.50;;
1759;SDS011;877;46.266;20.062;2023-04-25T14:57:23;2.57;;;1.43;;
1759;SDS011;877;46.266;20.062;2023-04-25T14:59:55;3.50;;;1.57;;
1759;SDS011;877;46.266;20.062;2023-04-25T15:02:25;2.43;;;1.47;;
1759;SDS011;877;46.266;20.062;2023-04-25T15:04:52;2.77;;;1.33;;
1759;SDS011;877;46.266;20.062;2023-04-25T15:07:18;2.37;;;1.30;;
1759;SDS011;877;46.266;20.062;2023-04-25T15:09:46;13.00;;;10.50;;
1759;SDS011;877;46.266;20.062;2023-04-25T15:12:13;3.37;;;1.70;;
1759;SDS011;877;46.266;20.062;2023-04-25T15:14:39;2.97;;;1.00;;
1759;SDS011;877;46.266;20.062;2023-04-25T15:17:06;2.43;;;1.30;;
1759;SDS011;877;46.266;20.062;2023-04-25T15:19:33;3.70;;;1.20;;
1759;SDS011;877;46.266;20.062;2023-04-25T15:22:01;3.00;;;1.40;;
1759;SDS011;877;46.266;20.062;2023-04-25T15:24:30;2.33;;;1.10;;
1759;SDS011;877;46.266;20.062;2023-04-25T15:26:58;2.40;;;1.20;;
1759;SDS011;877;46.266;20.062;2023-04-25T15:29:29;2.70;;;1.23;;
1759;SDS011;877;46.266;20.062;2023-04-25T15:32:02;14.47;;;9.20;;
1759;SDS011;877;46.266;20.062;2023-04-25T15:34:28;7.20;;;2.73;;
1759;SDS011;877;46.266;20.062;2023-04-25T15:36:55;4.67;;;1.83;;
1759;SDS011;877;46.266;20.062;2023-04-25T15:39:24;6.10;;;1.30;;
1759;SDS011;877;46.266;20.062;2023-04-25T15:44:26;2.40;;;1.27;;
1759;SDS011;877;46.266;20.062;2023-04-25T15:46:54;4.50;;;2.20;;
1759;SDS011;877;46.266;20.062;2023-04-25T15:49:22;3.17;;;1.67;;
1759;SDS011;877;46.266;20.062;2023-04-25T15:51:49;3.33;;;1.20;;
1759;SDS011;877;46.266;20.062;2023-04-25T15:56:47;3.13;;;1.63;;
1759;SDS011;877;46.266;20.062;2023-04-25T16:01:48;2.37;;;1.17;;
1759;SDS011;877;46.266;20.062;2023-04-25T16:04:14;2.40;;;1.40;;
1759;SDS011;877;46.266;20.062;2023-04-25T16:06:41;2.50;;;1.10;;
1759;SDS011;877;46.266;20.062;2023-04-25T16:09:07;3.57;;;1.47;;
1759;SDS011;877;46.266;20.062;2023-04-25T16:11:34;2.80;;;1.80;;
1759;SDS011;877;46.266;20.062;2023-04-25T16:14:00;3.87;;;1.70;;
1759;SDS011;877;46.266;20.062;2023-04-25T16:16:26;3.13;;;1.57;;
1759;SDS011;877;46.266;20.062;2023-04-25T16:18:55;2.80;;;1.63;;
1759;SDS011;877;46.266;20.062;2023-04-25T16:21:22;3.30;;;1.70;;
1759;SDS011;877;46.266;20.062;2023-04-25T16:23:48;4.23;;;3.13;;
1759;SDS011;877;46.266;20.062;2023-04-25T16:26:23;4.13;;;3.07;;
1759;SDS011;877;46.266;20.062;2023-04-25T16:28:54;9.53;;;2.80;;
1759;SDS011;877;46.266;20.062;2023-04-25T16:31:25;4.70;;;2.90;;
1759;SDS011;877;46.266;20.062;2023-04-25T16:33:52;8.40;;;3.63;;